createdAt,value
2022-11-27T00:01:15.996Z,100.00
2022-11-27T00:03:43.555Z,100.00
2022-11-27T00:06:16.331Z,100.00
2022-11-27T00:08:44.831Z,100.00
2022-11-27T00:11:15.916Z,100.00
2022-11-27T00:13:43.344Z,100.00
2022-11-27T00:16:10.797Z,100.00
2022-11-27T00:18:44.700Z,100.00
2022-11-27T00:21:22.550Z,100.00
2022-11-27T00:23:50.016Z,100.00
2022-11-27T00:26:16.904Z,100.00
2022-11-27T00:28:44.008Z,100.00
2022-11-27T00:31:19.677Z,100.00
2022-11-27T00:33:47.277Z,100.00
2022-11-27T00:36:17.223Z,100.00
2022-11-27T00:38:44.387Z,100.00
2022-11-27T00:41:22.845Z,100.00
2022-11-27T00:43:50.214Z,100.00
2022-11-27T00:46:20.077Z,100.00
2022-11-27T00:48:48.701Z,100.00
2022-11-27T00:51:19.291Z,100.00
2022-11-27T00:53:46.974Z,100.00
2022-11-27T00:56:35.427Z,100.00
2022-11-27T00:59:03.173Z,100.00
2022-11-27T01:01:33.914Z,100.00
2022-11-27T01:04:02.923Z,100.00
2022-11-27T01:06:30.748Z,100.00
2022-11-27T01:08:58.607Z,100.00
2022-11-27T01:11:47.659Z,100.00
2022-11-27T01:14:17.305Z,100.00
2022-11-27T01:16:44.192Z,100.00
2022-11-27T01:19:13.550Z,100.00
2022-11-27T01:21:41.555Z,100.00
2022-11-27T01:24:08.989Z,100.00
2022-11-27T01:26:35.862Z,100.00
2022-11-27T01:29:02.688Z,100.00
2022-11-27T01:31:31.984Z,100.00
2022-11-27T01:34:01.955Z,100.00
2022-11-27T01:36:29.632Z,100.00
2022-11-27T01:38:56.664Z,100.00
2022-11-27T01:41:26.404Z,100.00
2022-11-27T01:43:56.079Z,100.00
2022-11-27T01:46:44.686Z,100.00
2022-11-27T01:49:11.568Z,100.00
2022-11-27T01:51:54.243Z,100.00
2022-11-27T01:54:24.664Z,100.00
2022-11-27T01:56:56.480Z,100.00
2022-11-27T01:59:24.301Z,100.00
2022-11-27T02:01:51.335Z,100.00
2022-11-27T02:04:19.121Z,100.00
2022-11-27T02:06:46.773Z,100.00
2022-11-27T02:09:13.909Z,100.00
2022-11-27T02:11:43.307Z,100.00
2022-11-27T02:14:23.066Z,100.00
2022-11-27T02:17:08.237Z,100.00
2022-11-27T02:19:47.331Z,100.00
2022-11-27T02:22:47.309Z,100.00
2022-11-27T02:25:30.915Z,100.00
2022-11-27T02:28:05.232Z,100.00
2022-11-27T02:30:41.655Z,100.00
2022-11-27T02:33:12.958Z,100.00
2022-11-27T02:35:48.191Z,100.00
2022-11-27T02:38:26.300Z,100.00
2022-11-27T02:41:12.929Z,100.00
2022-11-27T02:43:45.503Z,100.00
2022-11-27T02:46:13.643Z,100.00
2022-11-27T02:48:51.668Z,100.00
2022-11-27T02:51:24.150Z,100.00
2022-11-27T02:53:56.294Z,100.00
2022-11-27T02:56:27.406Z,100.00
2022-11-27T02:58:57.427Z,100.00
2022-11-27T03:01:27.996Z,100.00
2022-11-27T03:03:58.435Z,100.00
2022-11-27T03:06:39.703Z,100.00
2022-11-27T03:09:10.770Z,100.00
2022-11-27T03:11:37.825Z,100.00
2022-11-27T03:14:08.081Z,100.00
2022-11-27T03:17:06.857Z,100.00
2022-11-27T03:19:56.635Z,100.00
2022-11-27T03:22:23.792Z,100.00
2022-11-27T03:24:50.664Z,100.00
2022-11-27T03:27:21.619Z,100.00
2022-11-27T03:29:52.979Z,100.00
2022-11-27T03:32:20.624Z,100.00
2022-11-27T03:34:48.119Z,100.00
2022-11-27T03:37:15.503Z,100.00
2022-11-27T03:39:43.439Z,100.00
2022-11-27T03:42:25.170Z,100.00
2022-11-27T03:45:30.911Z,100.00
2022-11-27T03:48:22.299Z,100.00
2022-11-27T03:51:08.985Z,100.00
2022-11-27T03:53:41.745Z,100.00
2022-11-27T03:56:42.131Z,100.00
2022-11-27T03:59:32.526Z,100.00
2022-11-27T04:01:59.595Z,100.00
2022-11-27T04:04:26.483Z,100.00
2022-11-27T04:06:53.429Z,100.00
2022-11-27T04:09:20.256Z,100.00
2022-11-27T04:11:47.219Z,100.00
2022-11-27T04:14:14.038Z,100.00
2022-11-27T04:16:40.983Z,100.00
2022-11-27T04:19:09.489Z,100.00
2022-11-27T04:21:37.365Z,100.00
2022-11-27T04:24:04.189Z,100.00
2022-11-27T04:26:31.019Z,100.00
2022-11-27T04:28:57.813Z,100.00
2022-11-27T04:31:24.756Z,100.00
2022-11-27T04:33:51.694Z,100.00
2022-11-27T04:36:18.622Z,100.00
2022-11-27T04:38:45.477Z,100.00
2022-11-27T04:41:12.295Z,100.00
2022-11-27T04:43:39.116Z,100.00
2022-11-27T04:46:05.972Z,100.00
2022-11-27T04:48:32.860Z,100.00
2022-11-27T04:50:59.788Z,100.00
2022-11-27T04:53:26.638Z,100.00
2022-11-27T04:55:53.462Z,100.00
2022-11-27T04:58:20.375Z,100.00
2022-11-27T05:00:47.256Z,100.00
2022-11-27T05:03:14.152Z,100.00
2022-11-27T05:05:41.134Z,100.00
2022-11-27T05:08:07.932Z,100.00
2022-11-27T05:10:34.920Z,100.00
2022-11-27T05:13:01.828Z,100.00
2022-11-27T05:15:28.652Z,100.00
2022-11-27T05:17:55.444Z,100.00
2022-11-27T05:20:22.323Z,100.00
2022-11-27T05:22:49.789Z,100.00
2022-11-27T05:25:16.866Z,100.00
2022-11-27T05:27:43.788Z,100.00
2022-11-27T05:30:10.875Z,100.00
2022-11-27T05:32:38.098Z,100.00
2022-11-27T05:35:05.303Z,100.00
2022-11-27T05:37:32.066Z,100.00
2022-11-27T05:39:59.153Z,100.00
2022-11-27T05:42:26.044Z,100.00
2022-11-27T05:44:58.090Z,100.00
2022-11-27T05:47:25.469Z,100.00
2022-11-27T05:49:52.434Z,100.00
2022-11-27T05:52:19.259Z,100.00
2022-11-27T05:54:46.142Z,100.00
2022-11-27T05:57:12.991Z,100.00
2022-11-27T05:59:39.764Z,100.00
2022-11-27T06:02:06.746Z,100.00
2022-11-27T06:04:36.236Z,100.00
2022-11-27T06:07:03.090Z,100.00
2022-11-27T06:09:30.083Z,100.00
2022-11-27T06:11:57.067Z,100.00
2022-11-27T06:14:23.915Z,100.00
2022-11-27T06:16:50.971Z,100.00
2022-11-27T06:19:17.823Z,100.00
2022-11-27T06:21:46.697Z,100.00
2022-11-27T06:24:13.623Z,100.00
2022-11-27T06:26:40.662Z,100.00
2022-11-27T06:29:07.484Z,100.00
2022-11-27T06:31:34.570Z,100.00
2022-11-27T06:34:02.740Z,100.00
2022-11-27T06:36:32.574Z,100.00
2022-11-27T06:39:00.027Z,100.00
2022-11-27T06:41:28.744Z,100.00
2022-11-27T06:43:57.618Z,100.00
2022-11-27T06:46:25.278Z,100.00
2022-11-27T06:48:54.156Z,100.00
2022-11-27T06:51:24.508Z,100.00
2022-11-27T06:53:53.427Z,100.00
2022-11-27T06:56:23.283Z,100.00
2022-11-27T06:58:54.860Z,100.00
2022-11-27T07:01:23.213Z,100.00
2022-11-27T07:03:50.205Z,100.00
2022-11-27T07:06:20.690Z,100.00
2022-11-27T07:08:47.902Z,100.00
2022-11-27T07:11:20.657Z,100.00
2022-11-27T07:13:48.694Z,100.00
2022-11-27T07:16:16.831Z,100.00
2022-11-27T07:18:49.285Z,100.00
2022-11-27T07:21:16.319Z,100.00
2022-11-27T07:23:43.654Z,100.00
2022-11-27T07:26:19.931Z,100.00
2022-11-27T07:28:47.825Z,100.00
2022-11-27T07:31:20.641Z,100.00
2022-11-27T07:33:48.458Z,100.00
2022-11-27T07:36:24.270Z,100.00
2022-11-27T07:38:51.664Z,100.00
2022-11-27T07:41:18.870Z,100.00
2022-11-27T07:43:47.168Z,100.00
2022-11-27T07:46:20.572Z,100.00
2022-11-27T07:48:47.918Z,100.00
2022-11-27T07:51:17.763Z,100.00
2022-11-27T07:53:44.848Z,100.00
2022-11-27T07:56:15.377Z,100.00
2022-11-27T07:58:42.328Z,100.00
2022-11-27T08:01:11.816Z,100.00
2022-11-27T08:03:39.105Z,100.00
2022-11-27T08:06:13.778Z,100.00
2022-11-27T08:08:40.850Z,100.00
2022-11-27T08:11:15.924Z,100.00
2022-11-27T08:13:43.015Z,100.00
2022-11-27T08:16:09.997Z,100.00
2022-11-27T08:18:36.871Z,100.00
2022-11-27T08:21:03.738Z,100.00
2022-11-27T08:23:30.706Z,100.00
2022-11-27T08:25:57.584Z,100.00
2022-11-27T08:28:24.489Z,100.00
2022-11-27T08:30:59.786Z,100.00
2022-11-27T08:33:26.711Z,100.00
2022-11-27T08:35:54.362Z,100.00
2022-11-27T08:38:22.061Z,100.00
2022-11-27T08:40:59.801Z,100.00
2022-11-27T08:43:27.865Z,100.00
2022-11-27T08:45:55.064Z,100.00
2022-11-27T08:48:23.245Z,100.00
2022-11-27T08:50:50.915Z,100.00
2022-11-27T08:53:18.325Z,100.00
2022-11-27T08:55:45.459Z,100.00
2022-11-27T08:58:12.478Z,100.00
2022-11-27T09:00:40.685Z,100.00
2022-11-27T09:03:07.872Z,100.00
2022-11-27T09:05:34.873Z,100.00
2022-11-27T09:08:05.753Z,100.00
2022-11-27T09:10:32.722Z,100.00
2022-11-27T09:13:00.251Z,100.00
2022-11-27T09:15:27.162Z,100.00
2022-11-27T09:17:54.901Z,100.00
2022-11-27T09:20:21.851Z,100.00
2022-11-27T09:22:48.677Z,100.00
2022-11-27T09:25:15.654Z,100.00
2022-11-27T09:27:42.503Z,100.00
2022-11-27T09:30:09.986Z,100.00
2022-11-27T09:32:36.840Z,100.00
2022-11-27T09:35:04.119Z,100.00
2022-11-27T09:37:31.063Z,100.00
2022-11-27T09:39:59.443Z,100.00
2022-11-27T09:42:47.807Z,100.00
2022-11-27T09:45:17.540Z,100.00
2022-11-27T09:47:44.380Z,100.00
2022-11-27T09:50:21.522Z,100.00
2022-11-27T09:52:54.877Z,100.00
2022-11-27T09:55:33.472Z,100.00
2022-11-27T09:58:16.369Z,100.00
2022-11-27T10:00:47.934Z,100.00
2022-11-27T10:03:17.360Z,100.00
2022-11-27T10:05:53.213Z,100.00
2022-11-27T10:08:25.255Z,100.00
2022-11-27T10:10:55.162Z,100.00
2022-11-27T10:13:43.007Z,100.00
2022-11-27T10:16:26.572Z,100.00
2022-11-27T10:18:58.327Z,100.00
2022-11-27T10:21:51.153Z,100.00
2022-11-27T10:24:17.983Z,100.00
2022-11-27T10:26:49.813Z,100.00
2022-11-27T10:29:47.315Z,100.00
2022-11-27T10:32:52.966Z,100.00
2022-11-27T10:35:15.685Z,100.00
2022-11-27T10:37:48.398Z,100.00
2022-11-27T10:40:15.344Z,100.00
2022-11-27T10:43:00.458Z,100.00
2022-11-27T10:45:49.716Z,100.00
2022-11-27T10:48:17.109Z,100.00
2022-11-27T10:50:45.380Z,100.00
2022-11-27T10:53:45.686Z,100.00
2022-11-27T10:56:12.682Z,100.00
2022-11-27T10:58:48.429Z,100.00
2022-11-27T11:01:20.617Z,100.00
2022-11-27T11:03:47.878Z,100.00
2022-11-27T11:06:25.538Z,100.00
2022-11-27T11:09:12.975Z,100.00
2022-11-27T11:11:39.845Z,100.00
2022-11-27T11:14:19.398Z,100.00
2022-11-27T11:16:46.791Z,100.00
2022-11-27T11:19:33.244Z,100.00
2022-11-27T11:22:04.737Z,100.00
2022-11-27T11:24:35.852Z,100.00
2022-11-27T11:27:11.447Z,100.00
2022-11-27T11:29:46.675Z,100.00
2022-11-27T11:32:21.545Z,100.00
2022-11-27T11:34:59.166Z,100.00
2022-11-27T11:37:30.718Z,100.00
2022-11-27T11:40:05.901Z,100.00
2022-11-27T11:42:35.879Z,100.00
2022-11-27T11:45:13.401Z,100.00
2022-11-27T11:47:48.474Z,100.00
2022-11-27T11:50:41.335Z,100.00
2022-11-27T11:53:40.397Z,100.00
2022-11-27T11:56:33.324Z,100.00
2022-11-27T11:59:08.819Z,100.00
2022-11-27T12:02:02.332Z,98.56
2022-11-27T12:05:03.006Z,97.73
2022-11-27T12:07:55.094Z,93.33
2022-11-27T12:10:33.302Z,95.18
2022-11-27T12:13:22.329Z,95.27
2022-11-27T12:16:06.823Z,91.01
2022-11-27T12:19:01.587Z,89.65
2022-11-27T12:21:41.334Z,93.06
2022-11-27T12:24:08.258Z,95.83
2022-11-27T12:27:02.011Z,95.60
2022-11-27T12:29:37.312Z,93.71
2022-11-27T12:32:29.935Z,92.59
2022-11-27T12:35:06.967Z,93.97
2022-11-27T12:38:16.997Z,90.52
2022-11-27T12:40:46.318Z,89.21
2022-11-27T12:43:23.072Z,88.87
2022-11-27T12:46:11.854Z,86.53
2022-11-27T12:49:00.798Z,85.61
2022-11-27T12:51:31.970Z,87.68
2022-11-27T12:54:15.099Z,91.36
2022-11-27T12:56:49.388Z,86.51
2022-11-27T12:59:30.577Z,86.64
2022-11-27T13:02:14.919Z,86.32
2022-11-27T13:04:53.210Z,86.68
2022-11-27T13:07:38.967Z,84.85
2022-11-27T13:10:23.915Z,83.00
2022-11-27T13:12:56.650Z,86.00
2022-11-27T13:15:49.143Z,86.28
2022-11-27T13:18:26.530Z,86.48
2022-11-27T13:20:53.844Z,86.75
2022-11-27T13:23:21.465Z,86.81
2022-11-27T13:25:53.877Z,90.84
2022-11-27T13:28:47.688Z,92.75
2022-11-27T13:31:31.132Z,95.42
2022-11-27T13:34:08.094Z,96.10
2022-11-27T13:36:40.828Z,98.76
2022-11-27T13:39:23.021Z,98.96
2022-11-27T13:42:11.661Z,97.65
2022-11-27T13:44:43.759Z,97.56
2022-11-27T13:47:17.875Z,98.76
2022-11-27T13:49:46.523Z,97.19
2022-11-27T13:52:19.435Z,97.90
2022-11-27T13:55:01.377Z,100.00
2022-11-27T13:57:29.890Z,96.81
2022-11-27T14:00:00.817Z,97.50
2022-11-27T14:02:59.916Z,98.51
2022-11-27T14:05:44.712Z,98.57
2022-11-27T14:08:21.740Z,100.00
2022-11-27T14:11:11.993Z,100.00
2022-11-27T14:13:41.515Z,100.00
2022-11-27T14:16:33.030Z,100.00
2022-11-27T14:19:27.196Z,100.00
2022-11-27T14:21:57.711Z,100.00
2022-11-27T14:24:36.755Z,100.00
2022-11-27T14:27:35.766Z,100.00
2022-11-27T14:30:24.051Z,100.00
2022-11-27T14:32:53.035Z,100.00
2022-11-27T14:35:21.905Z,100.00
2022-11-27T14:37:49.165Z,100.00
2022-11-27T14:40:25.229Z,100.00
2022-11-27T14:42:52.288Z,100.00
2022-11-27T14:45:22.248Z,100.00
2022-11-27T14:47:52.835Z,100.00
2022-11-27T14:50:21.437Z,100.00
2022-11-27T14:52:55.400Z,100.00
2022-11-27T14:55:23.494Z,100.00
2022-11-27T14:57:51.085Z,100.00
2022-11-27T15:00:27.288Z,100.00
2022-11-27T15:02:55.041Z,100.00
2022-11-27T15:05:25.771Z,100.00
2022-11-27T15:07:58.699Z,100.00
2022-11-27T15:10:37.263Z,100.00
2022-11-27T15:13:06.329Z,100.00
2022-11-27T15:15:39.907Z,100.00
2022-11-27T15:18:09.231Z,100.00
2022-11-27T15:20:42.408Z,100.00
2022-11-27T15:23:28.002Z,100.00
2022-11-27T15:26:00.791Z,100.00
2022-11-27T15:28:43.754Z,100.00
2022-11-27T15:31:30.247Z,100.00
2022-11-27T15:34:15.553Z,100.00
2022-11-27T15:36:49.077Z,100.00
2022-11-27T15:39:15.927Z,100.00
2022-11-27T15:41:51.768Z,100.00
2022-11-27T15:44:18.697Z,100.00
2022-11-27T15:46:46.081Z,100.00
2022-11-27T15:49:15.300Z,100.00
2022-11-27T15:51:43.310Z,100.00
2022-11-27T15:54:10.175Z,100.00
2022-11-27T15:56:37.012Z,100.00
2022-11-27T15:59:04.476Z,100.00
2022-11-27T16:01:31.353Z,100.00
2022-11-27T16:03:58.650Z,100.00
2022-11-27T16:06:25.707Z,100.00
2022-11-27T16:09:00.013Z,100.00
2022-11-27T16:11:28.651Z,100.00
2022-11-27T16:13:55.732Z,100.00
2022-11-27T16:16:23.697Z,100.00
2022-11-27T16:18:50.791Z,100.00
2022-11-27T16:21:18.885Z,100.00
2022-11-27T16:23:45.728Z,100.00
2022-11-27T16:26:14.061Z,100.00
2022-11-27T16:28:41.493Z,100.00
2022-11-27T16:31:12.297Z,100.00
2022-11-27T16:33:39.491Z,100.00
2022-11-27T16:36:15.491Z,100.00
2022-11-27T16:38:43.285Z,100.00
2022-11-27T16:41:15.989Z,100.00
2022-11-27T16:43:45.648Z,100.00
2022-11-27T16:46:16.844Z,100.00
2022-11-27T16:48:45.162Z,100.00
2022-11-27T16:51:15.096Z,100.00
2022-11-27T16:53:45.387Z,100.00
2022-11-27T16:56:14.181Z,100.00
2022-11-27T16:58:43.247Z,100.00
2022-11-27T17:01:12.638Z,100.00
2022-11-27T17:03:39.829Z,100.00
2022-11-27T17:06:12.134Z,100.00
2022-11-27T17:08:39.633Z,100.00
2022-11-27T17:11:11.618Z,100.00
2022-11-27T17:13:38.852Z,100.00
2022-11-27T17:16:08.705Z,100.00
2022-11-27T17:18:40.879Z,100.00
2022-11-27T17:21:10.977Z,100.00
2022-11-27T17:23:38.692Z,100.00
2022-11-27T17:26:10.039Z,100.00
2022-11-27T17:28:37.682Z,100.00
2022-11-27T17:31:17.699Z,100.00
2022-11-27T17:33:45.412Z,100.00
2022-11-27T17:36:13.418Z,100.00
2022-11-27T17:38:40.576Z,100.00
2022-11-27T17:41:13.029Z,100.00
2022-11-27T17:43:41.078Z,100.00
2022-11-27T17:46:14.814Z,100.00
2022-11-27T17:48:42.680Z,100.00
2022-11-27T17:51:09.934Z,100.00
2022-11-27T17:53:37.492Z,100.00
2022-11-27T17:56:08.832Z,100.00
2022-11-27T17:58:36.088Z,100.00
2022-11-27T18:01:05.282Z,100.00
2022-11-27T18:03:34.253Z,100.00
2022-11-27T18:06:06.377Z,100.00
2022-11-27T18:08:34.468Z,100.00
2022-11-27T18:11:13.496Z,100.00
2022-11-27T18:13:40.557Z,100.00
2022-11-27T18:16:21.875Z,100.00
2022-11-27T18:18:49.898Z,100.00
2022-11-27T18:21:21.833Z,100.00
2022-11-27T18:24:21.196Z,100.00
2022-11-27T18:27:07.810Z,100.00
2022-11-27T18:29:24.569Z,100.00
2022-11-27T18:31:52.909Z,100.00
2022-11-27T18:34:19.808Z,100.00
2022-11-27T18:36:46.649Z,100.00
2022-11-27T18:39:13.583Z,100.00
2022-11-27T18:41:40.958Z,100.00
2022-11-27T18:44:08.777Z,100.00
2022-11-27T18:46:35.761Z,100.00
2022-11-27T18:49:02.732Z,100.00
2022-11-27T18:51:29.609Z,100.00
2022-11-27T18:53:57.842Z,100.00
2022-11-27T18:56:30.580Z,100.00
2022-11-27T18:59:03.403Z,100.00
2022-11-27T19:01:36.739Z,100.00
2022-11-27T19:04:07.190Z,100.00
2022-11-27T19:06:35.943Z,100.00
2022-11-27T19:09:03.367Z,100.00
2022-11-27T19:11:31.090Z,100.00
2022-11-27T19:14:05.148Z,100.00
2022-11-27T19:16:39.274Z,100.00
2022-11-27T19:19:07.527Z,100.00
2022-11-27T19:21:35.692Z,100.00
2022-11-27T19:24:04.748Z,100.00
2022-11-27T19:26:34.655Z,100.00
2022-11-27T19:29:05.651Z,100.00
2022-11-27T19:31:33.675Z,100.00
2022-11-27T19:34:03.147Z,100.00
2022-11-27T19:36:32.384Z,100.00
2022-11-27T19:39:02.079Z,100.00
2022-11-27T19:41:30.502Z,100.00
2022-11-27T19:44:05.342Z,100.00
2022-11-27T19:46:36.011Z,100.00
2022-11-27T19:49:06.317Z,100.00
2022-11-27T19:51:37.942Z,100.00
2022-11-27T19:54:09.989Z,100.00
2022-11-27T19:56:40.779Z,100.00
2022-11-27T19:59:07.961Z,100.00
2022-11-27T20:01:35.922Z,100.00
2022-11-27T20:04:04.126Z,100.00
2022-11-27T20:06:31.432Z,100.00
2022-11-27T20:09:01.655Z,100.00
2022-11-27T20:11:34.289Z,100.00
2022-11-27T20:14:04.324Z,100.00
2022-11-27T20:16:33.549Z,100.00
2022-11-27T20:19:02.379Z,100.00
2022-11-27T20:21:29.339Z,100.00
2022-11-27T20:23:57.665Z,100.00
2022-11-27T20:26:27.319Z,100.00
2022-11-27T20:28:55.051Z,100.00
2022-11-27T20:31:25.519Z,100.00
2022-11-27T20:33:57.153Z,100.00
2022-11-27T20:36:28.324Z,100.00
2022-11-27T20:38:55.936Z,100.00
2022-11-27T20:41:24.047Z,100.00
2022-11-27T20:43:55.790Z,100.00
2022-11-27T20:46:23.313Z,100.00
2022-11-27T20:48:52.346Z,100.00
2022-11-27T20:51:24.207Z,100.00
2022-11-27T20:53:53.392Z,100.00
2022-11-27T20:56:20.949Z,100.00
2022-11-27T20:58:49.055Z,100.00
2022-11-27T21:01:27.225Z,100.00
2022-11-27T21:03:55.545Z,100.00
2022-11-27T21:06:26.535Z,100.00
2022-11-27T21:08:55.133Z,100.00
2022-11-27T21:11:28.130Z,100.00
2022-11-27T21:14:01.154Z,100.00
2022-11-27T21:16:31.813Z,100.00
2022-11-27T21:19:03.554Z,100.00
2022-11-27T21:21:30.811Z,100.00
2022-11-27T21:23:59.866Z,100.00
2022-11-27T21:26:27.676Z,100.00
2022-11-27T21:28:54.719Z,100.00
2022-11-27T21:31:26.288Z,100.00
2022-11-27T21:34:01.807Z,100.00
2022-11-27T21:36:31.975Z,100.00
2022-11-27T21:39:00.509Z,100.00
2022-11-27T21:41:29.380Z,100.00
2022-11-27T21:43:58.485Z,100.00
2022-11-27T21:46:27.186Z,100.00
2022-11-27T21:48:58.541Z,100.00
2022-11-27T21:51:26.492Z,100.00
2022-11-27T21:53:55.574Z,100.00
2022-11-27T21:56:24.725Z,100.00
2022-11-27T21:58:51.965Z,100.00
2022-11-27T22:01:23.067Z,100.00
2022-11-27T22:03:56.737Z,100.00
2022-11-27T22:06:26.531Z,100.00
2022-11-27T22:08:56.896Z,100.00
2022-11-27T22:11:26.854Z,100.00
2022-11-27T22:13:58.437Z,100.00
2022-11-27T22:16:26.898Z,100.00
2022-11-27T22:18:55.607Z,100.00
2022-11-27T22:21:24.045Z,100.00
2022-11-27T22:23:51.993Z,100.00
2022-11-27T22:26:21.275Z,100.00
2022-11-27T22:28:48.823Z,100.00
2022-11-27T22:31:29.766Z,100.00
2022-11-27T22:34:02.433Z,100.00
2022-11-27T22:36:35.698Z,100.00
2022-11-27T22:39:06.445Z,100.00
2022-11-27T22:41:36.938Z,100.00
2022-11-27T22:44:14.721Z,100.00
2022-11-27T22:46:42.671Z,100.00
2022-11-27T22:49:11.867Z,100.00
2022-11-27T22:51:39.627Z,100.00
2022-11-27T22:54:09.972Z,100.00
2022-11-27T22:56:40.706Z,100.00
2022-11-27T22:59:31.683Z,100.00
2022-11-27T23:01:59.861Z,100.00
2022-11-27T23:04:27.944Z,100.00
2022-11-27T23:06:55.112Z,100.00
2022-11-27T23:09:22.979Z,100.00
2022-11-27T23:11:50.281Z,100.00
2022-11-27T23:14:17.636Z,100.00
2022-11-27T23:16:44.705Z,100.00
2022-11-27T23:19:12.527Z,100.00
2022-11-27T23:21:43.153Z,100.00
2022-11-27T23:24:23.733Z,100.00
2022-11-27T23:26:55.551Z,100.00
2022-11-27T23:29:22.450Z,100.00
2022-11-27T23:31:54.864Z,100.00
2022-11-27T23:34:21.873Z,100.00
2022-11-27T23:36:48.695Z,100.00
2022-11-27T23:39:15.734Z,100.00
2022-11-27T23:41:42.943Z,100.00
2022-11-27T23:44:09.937Z,100.00
2022-11-27T23:46:36.852Z,100.00
2022-11-27T23:49:03.817Z,100.00
2022-11-27T23:51:32.248Z,100.00
2022-11-27T23:54:00.434Z,100.00
2022-11-27T23:56:30.299Z,100.00
2022-11-27T23:58:58.064Z,100.00
